Time;durP1;ratioP1;P1;durP2;ratioP2;P2;SDS_P1;SDS_P2;PMS_P1;PMS_P2;Temp;Humidity;BMP_temperature;BMP_pressure;BME280_temperature;BME280_humidity;BME280_pressure;Samples;Min_cycle;Max_cycle;Signal;HPM_P1;HPM_P2
2020/12/27 00:02:11;;;;;;;4.13;3.03;;;;;;;5.65;65.63;95172.69;5051265;28;20202;-68
2020/12/27 00:04:38;;;;;;;6.20;3.22;;;;;;;5.74;65.54;95171.38;5050590;28;20319;-66
2020/12/27 00:07:09;;;;;;;4.18;3.20;;;;;;;5.64;65.60;95173.72;5051017;28;20184;-68
2020/12/27 00:09:39;;;;;;;5.13;3.50;;;;;;;5.74;65.66;95171.38;5050577;28;20203;-66
2020/12/27 00:12:07;;;;;;;5.60;3.60;;;;;;;5.72;66.55;95181.22;5054882;28;20832;-64
2020/12/27 00:14:33;;;;;;;7.40;3.35;;;;;;;5.76;66.48;95169.38;5056271;28;20560;-63
2020/12/27 00:17:05;;;;;;;5.00;3.60;;;;;;;5.72;66.72;95183.81;5050997;28;20205;-66
2020/12/27 00:19:32;;;;;;;6.32;3.70;;;;;;;5.59;67.24;95181.34;5049851;28;20185;-65
2020/12/27 00:21:58;;;;;;;5.03;3.75;;;;;;;5.50;67.10;95180.06;5050953;28;20654;-65
2020/12/27 00:24:25;;;;;;;5.93;3.60;;;;;;;5.34;68.03;95180.63;5050492;28;20208;-66
2020/12/27 00:26:52;;;;;;;5.93;3.85;;;;;;;5.38;68.57;95187.00;5050490;28;20197;-67
2020/12/27 00:29:18;;;;;;;6.28;3.83;;;;;;;5.47;68.50;95185.69;5050146;28;20200;-67
2020/12/27 00:31:51;;;;;;;5.78;3.47;;;;;;;5.41;68.66;95176.16;5050419;28;20300;-64
2020/12/27 00:34:19;;;;;;;5.53;3.53;;;;;;;5.55;68.05;95172.41;5049805;28;20587;-66
2020/12/27 00:36:46;;;;;;;7.00;4.07;;;;;;;5.61;67.85;95172.34;5050484;28;20209;-66
2020/12/27 00:39:13;;;;;;;5.38;4.05;;;;;;;5.56;67.75;95174.00;5050215;28;20188;-65
2020/12/27 00:41:39;;;;;;;5.25;3.75;;;;;;;5.42;68.36;95175.94;5050414;28;20208;-64
2020/12/27 00:44:06;;;;;;;6.70;4.10;;;;;;;5.27;69.42;95167.72;5049921;28;20200;-65
2020/12/27 00:46:32;;;;;;;5.95;4.10;;;;;;;5.38;69.01;95145.41;5050093;28;20195;-65
2020/12/27 00:48:59;;;;;;;5.13;3.67;;;;;;;5.62;68.47;95168.72;5048344;28;20192;-68
2020/12/27 00:51:27;;;;;;;5.55;3.75;;;;;;;5.64;68.26;95173.72;5050138;28;20614;-66
2020/12/27 00:53:55;;;;;;;7.78;3.85;;;;;;;5.52;68.93;95176.25;5049789;28;20192;-67
2020/12/27 00:56:23;;;;;;;6.18;4.07;;;;;;;5.71;68.51;95171.84;5048603;28;20204;-66
2020/12/27 00:59:10;;;;;;;7.82;3.78;;;;;;;5.69;69.04;95168.66;5049600;28;20295;-65
2020/12/27 01:01:37;;;;;;;5.13;3.70;;;;;;;5.50;69.45;95175.66;5048006;28;20318;-68
2020/12/27 01:04:32;;;;;;;5.75;3.95;;;;;;;5.22;69.90;95177.19;5029386;28;20266;-65
2020/12/27 01:06:59;;;;;;;5.32;3.80;;;;;;;5.23;70.44;95171.75;5048459;28;20204;-65
2020/12/27 01:09:26;;;;;;;5.57;3.92;;;;;;;5.27;70.41;95174.72;5048126;28;20215;-63
2020/12/27 01:11:52;;;;;;;4.95;3.85;;;;;;;5.26;70.46;95183.50;5049529;28;20205;-65
2020/12/27 01:14:20;;;;;;;6.55;4.30;;;;;;;5.20;71.00;95166.19;5047959;28;20702;-68
2020/12/27 01:16:52;;;;;;;6.82;4.25;;;;;;;5.44;70.78;95166.13;5048240;28;20200;-66
2020/12/27 01:19:23;;;;;;;6.70;4.25;;;;;;;5.46;70.67;95148.50;5048085;28;20583;-67
2020/12/27 01:21:53;;;;;;;6.10;4.30;;;;;;;5.67;69.70;95162.88;5048214;28;20322;-67
2020/12/27 01:24:37;;;;;;;6.80;4.28;;;;;;;5.69;69.02;95158.25;5047917;28;20211;-67
2020/12/27 01:27:05;;;;;;;6.07;4.03;;;;;;;5.72;69.65;95163.00;5064903;28;20639;-65
2020/12/27 01:29:31;;;;;;;5.82;4.00;;;;;;;5.70;69.13;95159.84;5048928;28;20199;-67
2020/12/27 01:32:09;;;;;;;6.13;3.53;;;;;;;5.54;70.03;95163.03;5047377;28;20265;-67
2020/12/27 01:34:45;;;;;;;6.05;4.05;;;;;;;5.55;70.05;95162.00;5047481;28;20323;-65
2020/12/27 01:37:12;;;;;;;5.53;4.13;;;;;;;5.65;70.00;95167.50;5047906;28;20212;-66
2020/12/27 01:39:46;;;;;;;9.60;4.10;;;;;;;5.69;69.79;95148.63;5047530;28;20654;-68
2020/12/27 01:42:13;;;;;;;5.95;4.25;;;;;;;5.74;70.55;95161.00;5048026;28;20214;-65
2020/12/27 01:44:40;;;;;;;8.07;4.53;;;;;;;5.84;70.51;95149.09;5047631;28;20208;-67
2020/12/27 01:47:16;;;;;;;5.82;4.07;;;;;;;5.92;70.14;95142.78;5054994;28;20592;-65
2020/12/27 01:49:44;;;;;;;6.82;4.10;;;;;;;5.81;70.71;95130.50;5050049;28;20193;-68
2020/12/27 01:52:12;;;;;;;7.85;4.40;;;;;;;5.86;70.55;95128.06;5049028;28;20311;-66
2020/12/27 01:55:06;;;;;;;5.93;3.90;;;;;;;6.03;70.45;95129.03;5047378;28;20219;-65
2020/12/27 01:57:53;;;;;;;7.32;4.57;;;;;;;5.97;70.32;95140.31;5047721;28;20214;-65
2020/12/27 02:00:22;;;;;;;7.28;4.40;;;;;;;5.98;70.51;95131.50;5047243;28;20227;-68
2020/12/27 02:03:09;;;;;;;6.93;4.28;;;;;;;6.08;69.98;95126.56;5048488;28;20208;-67
2020/12/27 02:05:50;;;;;;;7.57;4.35;;;;;;;6.18;70.07;95126.81;5047226;28;20215;-65
2020/12/27 02:08:19;;;;;;;9.18;5.43;;;;;;;6.11;70.78;95118.31;5049287;28;20193;-65
2020/12/27 02:11:04;;;;;;;11.52;5.57;;;;;;;5.98;70.45;95103.69;5064505;28;20231;-68
2020/12/27 02:13:30;;;;;;;7.70;5.57;;;;;;;6.11;70.60;95110.53;5047456;28;20207;-67
2020/12/27 02:15:57;;;;;;;9.88;6.85;;;;;;;5.95;71.01;95111.94;5048628;28;20203;-64
2020/12/27 02:18:33;;;;;;;14.98;7.22;;;;;;;5.85;71.37;95110.88;5048904;28;20690;-67
2020/12/27 02:21:05;;;;;;;11.88;7.50;;;;;;;5.90;71.06;95113.59;5047712;28;20228;-66
2020/12/27 02:23:34;;;;;;;13.60;7.50;;;;;;;5.89;71.05;95117.22;5063831;28;20208;-68
2020/12/27 02:26:09;;;;;;;12.50;7.90;;;;;;;5.78;71.37;95110.16;5047635;28;20257;-64
2020/12/27 02:28:42;;;;;;;17.33;9.02;;;;;;;5.81;71.18;95107.09;5064289;28;20247;-68
2020/12/27 02:31:13;;;;;;;19.48;9.63;;;;;;;5.99;70.96;95112.28;5048113;28;20207;-66
2020/12/27 02:33:52;;;;;;;16.48;9.77;;;;;;;6.05;70.82;95101.00;5047842;28;20240;-67
2020/12/27 02:36:19;;;;;;;14.68;8.55;;;;;;;5.86;71.04;95091.66;5047481;28;20317;-67
2020/12/27 02:38:47;;;;;;;12.48;7.68;;;;;;;5.88;71.05;95094.81;5048059;28;20196;-64
2020/12/27 02:41:23;;;;;;;12.13;7.50;;;;;;;5.94;70.53;95099.94;5047913;28;20256;-66
2020/12/27 02:44:12;;;;;;;12.75;7.25;;;;;;;5.80;71.45;95087.31;5048689;28;20213;-65
2020/12/27 02:46:56;;;;;;;10.82;6.80;;;;;;;5.88;71.05;95089.63;5051079;28;20198;-64
2020/12/27 02:50:01;;;;;;;11.20;6.95;;;;;;;5.73;71.70;95081.41;5036398;28;20211;-67
2020/12/27 02:52:30;;;;;;;11.07;6.97;;;;;;;5.83;71.78;95081.69;5050762;28;20320;-65
2020/12/27 02:54:57;;;;;;;9.52;6.60;;;;;;;5.80;71.55;95092.53;5050703;28;20757;-66
2020/12/27 02:57:31;;;;;;;10.20;6.75;;;;;;;5.83;71.95;95089.50;5051231;28;20287;-64
2020/12/27 02:59:58;;;;;;;8.90;6.10;;;;;;;5.82;71.47;95078.25;5052143;28;20200;-63
2020/12/27 03:02:50;;;;;;;11.27;6.93;;;;;;;5.95;71.12;95085.13;5051968;28;20208;-66
2020/12/27 03:05:31;;;;;;;11.60;7.43;;;;;;;5.87;71.13;95072.44;5050279;28;20196;-67
2020/12/27 03:07:58;;;;;;;10.90;7.40;;;;;;;5.90;71.71;95082.41;5051069;28;20278;-67
2020/12/27 03:10:36;;;;;;;10.88;7.40;;;;;;;5.97;71.44;95083.09;5066844;28;20223;-66
2020/12/27 03:13:06;;;;;;;11.73;8.50;;;;;;;5.95;70.98;95085.13;5067242;28;20228;-66
2020/12/27 03:15:33;;;;;;;11.65;8.50;;;;;;;5.76;71.78;95078.38;5066795;28;20196;-66
2020/12/27 03:18:18;;;;;;;13.55;8.63;;;;;;;5.76;71.93;95067.97;5052552;28;20215;-69
2020/12/27 03:21:05;;;;;;;11.30;8.57;;;;;;;5.74;72.51;95083.78;5052959;28;20250;-67
2020/12/27 03:23:31;;;;;;;15.13;10.18;;;;;;;5.80;71.94;95076.91;5051968;28;20562;-65
2020/12/27 03:26:05;;;;;;;13.43;9.77;;;;;;;5.72;72.59;95074.63;5067423;28;20223;-65
2020/12/27 03:28:32;;;;;;;13.55;9.63;;;;;;;5.74;72.36;95072.59;5051696;28;20781;-65
2020/12/27 03:31:03;;;;;;;12.95;9.73;;;;;;;5.80;72.38;95089.91;5067624;28;20207;-65
2020/12/27 03:33:33;;;;;;;15.07;10.00;;;;;;;5.95;71.97;95087.72;5067959;28;20684;-64
2020/12/27 03:36:05;;;;;;;13.27;10.20;;;;;;;5.75;72.88;95076.75;5052177;28;20584;-63
2020/12/27 03:38:43;;;;;;;14.75;10.13;;;;;;;5.71;73.20;95060.81;5068162;28;20262;-67
2020/12/27 03:41:29;;;;;;;16.23;10.98;;;;;;;5.73;72.84;95081.41;5066886;28;20235;-65
2020/12/27 03:44:07;;;;;;;17.17;11.13;;;;;;;5.69;72.73;95082.88;5050021;28;20216;-64
2020/12/27 03:46:53;;;;;;;18.90;10.63;;;;;;;5.46;73.47;95080.94;5051348;28;20297;-63
2020/12/27 03:49:40;;;;;;;17.73;11.40;;;;;;;5.60;73.32;95071.19;5050249;28;20651;-66
2020/12/27 03:52:18;;;;;;;18.40;11.73;;;;;;;5.49;73.74;95075.31;5049843;28;20217;-66
2020/12/27 03:55:05;;;;;;;19.05;11.88;;;;;;;5.36;74.69;95077.28;5042513;28;20200;-63
2020/12/27 03:57:47;;;;;;;22.70;12.20;;;;;;;5.41;74.35;95057.44;5049688;28;20299;-65
2020/12/27 04:00:34;;;;;;;19.02;12.50;;;;;;;5.51;74.02;95075.09;5050042;28;20239;-66
2020/12/27 04:03:09;;;;;;;17.65;12.07;;;;;;;5.57;74.05;95077.63;5049983;28;20200;-67
2020/12/27 04:05:40;;;;;;;22.70;12.32;;;;;;;5.54;74.18;95077.25;5049389;28;20200;-67
2020/12/27 04:08:08;;;;;;;19.00;11.45;;;;;;;5.58;74.42;95062.81;5049319;28;20403;-66
2020/12/27 04:10:37;;;;;;;19.77;12.45;;;;;;;5.51;74.38;95057.69;5065851;28;20307;-65
2020/12/27 04:13:04;;;;;;;18.75;12.55;;;;;;;5.50;74.85;95055.31;5049644;28;20262;-66
2020/12/27 04:15:32;;;;;;;18.60;12.02;;;;;;;5.67;73.93;95067.50;5049139;28;20222;-64
2020/12/27 04:18:09;;;;;;;18.20;12.40;;;;;;;5.58;74.45;95058.41;5049393;28;20212;-65
2020/12/27 04:21:12;;;;;;;18.55;12.02;;;;;;;5.54;74.40;95051.28;5038659;28;20751;-67
2020/12/27 04:23:39;;;;;;;18.75;11.82;;;;;;;5.66;74.11;95059.88;5065424;28;20868;-64
2020/12/27 04:26:05;;;;;;;21.70;12.57;;;;;;;5.79;73.77;95062.31;5049253;28;20200;-63
2020/12/27 04:28:32;;;;;;;17.85;12.77;;;;;;;5.68;74.05;95068.25;5049084;28;20659;-65
2020/12/27 04:30:58;;;;;;;22.58;12.93;;;;;;;5.39;75.23;95059.44;5065771;28;20278;-65
2020/12/27 04:33:40;;;;;;;21.65;13.25;;;;;;;5.37;75.43;95060.66;5048705;28;20236;-66
2020/12/27 04:36:27;;;;;;;18.02;12.50;;;;;;;5.43;75.67;95059.81;5049802;28;20219;-66
2020/12/27 04:38:58;;;;;;;22.45;13.10;;;;;;;5.41;75.85;95067.03;5048477;28;20212;-66
2020/12/27 04:41:27;;;;;;;20.08;12.73;;;;;;;5.48;75.57;95070.34;5048998;28;20227;-69
2020/12/27 04:43:57;;;;;;;19.42;12.77;;;;;;;5.54;75.56;95061.66;5048265;28;20208;-66
2020/12/27 04:46:23;;;;;;;19.27;13.15;;;;;;;5.57;75.29;95056.81;5065664;28;20219;-64
2020/12/27 04:48:56;;;;;;;18.80;12.10;;;;;;;5.64;74.99;95051.53;5048187;28;20231;-66
2020/12/27 04:51:41;;;;;;;21.33;13.50;;;;;;;5.58;75.20;95055.81;5048940;28;20277;-65
2020/12/27 04:54:30;;;;;;;18.55;12.63;;;;;;;5.38;75.49;95031.09;5050362;28;20697;-62
2020/12/27 04:57:19;;;;;;;21.98;12.40;;;;;;;5.38;75.93;95059.69;5053073;28;20196;-67
2020/12/27 04:59:47;;;;;;;20.73;12.65;;;;;;;5.51;76.13;95060.28;5048094;28;20678;-65
2020/12/27 05:02:27;;;;;;;22.27;13.27;;;;;;;5.64;75.57;95062.72;5065036;28;20289;-64
2020/12/27 05:04:55;;;;;;;18.88;12.32;;;;;;;5.58;76.05;95063.63;5047925;28;20260;-64
2020/12/27 05:07:42;;;;;;;19.08;12.07;;;;;;;5.54;76.04;95056.47;5048135;28;20315;-67
2020/12/27 05:10:29;;;;;;;19.30;12.40;;;;;;;5.79;75.61;95065.72;5038427;28;20208;-69
2020/12/27 05:13:02;;;;;;;17.25;12.32;;;;;;;5.92;74.71;95072.56;5048490;28;20204;-67
2020/12/27 05:15:28;;;;;;;18.15;11.40;;;;;;;5.93;74.60;95072.34;5048246;28;20227;-67
2020/12/27 05:17:59;;;;;;;18.85;11.38;;;;;;;5.95;74.49;95059.09;5047958;28;20303;-67
2020/12/27 05:20:32;;;;;;;15.30;10.43;;;;;;;5.98;74.60;95066.47;5064524;28;20221;-68
2020/12/27 05:23:01;;;;;;;16.60;10.38;;;;;;;6.03;74.75;95066.59;5048196;28;20296;-65
2020/12/27 05:25:47;;;;;;;15.52;9.77;;;;;;;5.99;74.79;95071.47;5047363;28;20805;-66
2020/12/27 05:28:47;;;;;;;13.15;9.13;;;;;;;5.84;75.02;95058.06;5039291;28;20222;-68
2020/12/27 05:31:38;;;;;;;15.88;9.68;;;;;;;5.86;75.64;95060.44;5049290;28;20768;-65
2020/12/27 05:34:38;;;;;;;13.00;8.40;;;;;;;5.99;74.86;95073.25;5036370;28;20227;-65
2020/12/27 05:37:24;;;;;;;15.13;9.32;;;;;;;5.93;75.19;95061.94;5049528;28;20207;-69
2020/12/27 05:40:10;;;;;;;17.30;10.82;;;;;;;6.17;77.54;95062.00;5048611;28;20200;-61
2020/12/27 05:43:16;;;;;;;16.48;10.38;;;;;;;6.31;76.92;95064.19;5047982;28;20215;-68
2020/12/27 05:45:55;;;;;;;15.32;10.27;;;;;;;6.30;76.23;95056.56;5047757;28;20727;-65
2020/12/27 05:48:22;;;;;;;15.32;9.38;;;;;;;6.16;76.30;95056.00;5047735;28;20586;-64
2020/12/27 05:50:50;;;;;;;14.63;9.25;;;;;;;6.22;76.16;95052.50;5049150;28;20295;-65
2020/12/27 05:53:21;;;;;;;13.23;8.80;;;;;;;6.29;76.04;95055.00;5049239;28;20208;-65
2020/12/27 05:55:54;;;;;;;12.27;7.50;;;;;;;6.28;75.75;95063.84;5047346;28;20669;-66
2020/12/27 05:58:26;;;;;;;13.40;8.20;;;;;;;6.27;75.93;95055.22;5047748;28;20223;-65
2020/12/27 06:01:05;;;;;;;12.95;7.50;;;;;;;6.27;76.03;95052.63;5048091;28;20315;-65
2020/12/27 06:03:58;;;;;;;10.75;7.22;;;;;;;6.14;75.79;95045.03;5048003;28;20211;-67
2020/12/27 06:06:49;;;;;;;12.60;6.78;;;;;;;6.18;76.26;95043.56;5048072;28;20192;-67
2020/12/27 06:09:41;;;;;;;10.57;6.50;;;;;;;6.18;76.22;95048.78;5063937;28;20197;-65
2020/12/27 06:12:12;;;;;;;10.18;6.15;;;;;;;6.20;76.49;95064.94;5047924;28;20742;-67
2020/12/27 06:15:04;;;;;;;10.40;6.07;;;;;;;6.23;76.00;95042.88;5064204;28;20208;-64
2020/12/27 06:17:52;;;;;;;10.02;6.00;;;;;;;6.33;76.07;95049.13;5050795;28;20342;-64
2020/12/27 06:20:36;;;;;;;8.75;5.72;;;;;;;6.33;75.71;95056.94;5051160;28;20920;-64
2020/12/27 06:23:05;;;;;;;8.93;5.63;;;;;;;6.27;75.80;95060.44;5051773;28;20208;-66
2020/12/27 06:25:40;;;;;;;9.00;6.13;;;;;;;6.43;75.48;95067.56;5051260;28;20274;-68
2020/12/27 06:28:09;;;;;;;10.82;6.15;;;;;;;6.30;75.65;95057.38;5068345;28;20231;-65
2020/12/27 06:31:09;;;;;;;12.63;8.10;;;;;;;6.36;75.22;95053.88;5060489;28;20229;-67
2020/12/27 06:34:02;;;;;;;17.73;10.85;;;;;;;6.43;75.38;95061.56;5050541;28;20361;-65
2020/12/27 06:36:57;;;;;;;15.85;11.55;;;;;;;6.34;75.96;95068.94;5050347;28;20210;-65
2020/12/27 06:39:47;;;;;;;15.73;11.32;;;;;;;6.33;75.62;95069.16;5067301;28;20636;-64
2020/12/27 06:42:40;;;;;;;19.75;12.65;;;;;;;6.43;75.53;95054.56;5052548;28;20207;-68
2020/12/27 06:45:25;;;;;;;22.38;13.20;;;;;;;6.50;75.72;95063.06;5050611;28;20208;-69
2020/12/27 06:48:05;;;;;;;18.83;13.02;;;;;;;6.52;75.45;95055.81;5052885;28;20197;-67
2020/12/27 06:50:52;;;;;;;19.40;12.18;;;;;;;6.44;75.72;95043.13;5051375;28;20196;-65
2020/12/27 06:53:43;;;;;;;15.07;10.30;;;;;;;6.45;75.53;95039.50;5050936;28;20201;-66
2020/12/27 06:56:36;;;;;;;16.60;8.80;;;;;;;6.44;75.14;95042.34;5067656;28;20204;-65
2020/12/27 06:59:29;;;;;;;13.15;7.13;;;;;;;6.30;75.51;95057.38;5050466;28;20211;-68
2020/12/27 07:02:05;;;;;;;9.32;6.35;;;;;;;6.35;75.48;95057.47;5052088;28;20732;-64
2020/12/27 07:04:38;;;;;;;9.10;6.40;;;;;;;6.26;75.81;95045.81;5051801;28;20192;-64
2020/12/27 07:07:05;;;;;;;9.13;6.03;;;;;;;6.41;75.24;95056.59;5067891;28;20266;-63
2020/12/27 07:09:39;;;;;;;11.32;7.05;;;;;;;6.48;75.13;95059.88;5051901;28;20189;-67
2020/12/27 07:12:09;;;;;;;9.70;7.35;;;;;;;6.50;75.17;95068.25;5052555;28;20582;-65
2020/12/27 07:14:42;;;;;;;12.82;7.65;;;;;;;6.49;75.08;95061.47;5051622;28;20177;-68
2020/12/27 07:17:17;;;;;;;11.77;8.05;;;;;;;6.54;74.70;95045.97;5050677;28;20652;-66
2020/12/27 07:19:43;;;;;;;15.02;8.52;;;;;;;6.59;74.80;95051.28;5051895;28;20253;-66
2020/12/27 07:22:11;;;;;;;15.65;9.65;;;;;;;6.62;74.88;95060.47;5051927;28;20279;-68
2020/12/27 07:24:40;;;;;;;14.63;10.10;;;;;;;6.60;74.43;95060.69;5051437;28;20204;-66
2020/12/27 07:27:10;;;;;;;16.02;10.00;;;;;;;6.50;75.04;95052.63;5051559;28;20291;-66
2020/12/27 07:29:37;;;;;;;17.73;11.35;;;;;;;6.44;75.28;95043.13;5050345;28;20223;-68
2020/12/27 07:32:04;;;;;;;17.23;11.10;;;;;;;6.52;75.11;95048.00;5052045;28;20307;-64
2020/12/27 07:34:32;;;;;;;17.50;10.35;;;;;;;6.46;75.03;95020.25;5051042;28;20730;-67
2020/12/27 07:37:03;;;;;;;18.30;11.07;;;;;;;6.60;74.79;95042.47;5051474;28;20200;-65
2020/12/27 07:39:50;;;;;;;18.95;10.80;;;;;;;6.66;74.57;95040.78;5051118;28;20203;-66
2020/12/27 07:42:20;;;;;;;18.05;11.23;;;;;;;6.60;74.38;95039.88;5051437;28;20305;-68
2020/12/27 07:44:47;;;;;;;17.90;11.82;;;;;;;6.78;73.95;95034.53;5049549;28;20232;-67
2020/12/27 07:47:13;;;;;;;18.65;11.10;;;;;;;6.70;73.64;95027.06;5051629;28;20736;-64
2020/12/27 07:49:41;;;;;;;14.05;9.63;;;;;;;6.74;74.28;95019.56;5050920;28;20208;-65
2020/12/27 07:52:15;;;;;;;18.08;9.98;;;;;;;6.74;74.03;95038.59;5051939;28;20213;-65
2020/12/27 07:54:54;;;;;;;12.98;8.48;;;;;;;6.84;75.16;95038.81;5051298;28;20211;-63
2020/12/27 07:57:20;;;;;;;13.23;8.63;;;;;;;6.90;74.94;95037.91;5051511;28;20210;-63
2020/12/27 08:00:05;;;;;;;13.30;8.63;;;;;;;6.94;74.81;95026.00;5052927;28;20246;-61
2020/12/27 08:02:41;;;;;;;12.60;8.43;;;;;;;7.04;74.29;95034.00;5055474;28;20225;-64
2020/12/27 08:05:11;;;;;;;13.68;8.07;;;;;;;7.08;75.24;95036.94;5050804;28;20634;-62
2020/12/27 08:07:39;;;;;;;12.88;8.35;;;;;;;7.13;75.22;95037.84;5048340;28;20220;-62
2020/12/27 08:10:18;;;;;;;12.82;8.77;;;;;;;7.11;74.09;95042.53;5046510;28;20246;-64
2020/12/27 08:12:55;;;;;;;15.45;9.70;;;;;;;7.09;74.33;95031.53;5050790;28;20731;-64
2020/12/27 08:15:23;;;;;;;16.13;9.57;;;;;;;7.03;73.59;95023.81;5050681;28;20597;-67
2020/12/27 08:18:11;;;;;;;14.10;9.70;;;;;;;7.00;73.58;95021.69;5050844;28;20287;-67
2020/12/27 08:20:49;;;;;;;14.52;9.48;;;;;;;7.02;73.55;95023.06;5049894;28;20206;-68
2020/12/27 08:23:17;;;;;;;13.70;9.15;;;;;;;6.96;73.59;95016.16;5050747;28;20218;-66
2020/12/27 08:25:44;;;;;;;15.10;10.57;;;;;;;6.85;73.87;95003.94;5049607;28;20201;-66
2020/12/27 08:28:14;;;;;;;103.13;74.82;;;;;;;7.12;74.36;95004.22;5050589;28;20231;-67
2020/12/27 08:30:43;;;;;;;121.60;84.18;;;;;;;7.25;74.09;95000.53;5049556;28;20212;-67
2020/12/27 08:33:15;;;;;;;111.28;75.82;;;;;;;7.31;74.15;94997.03;5047672;28;20258;-66
2020/12/27 08:35:47;;;;;;;16.58;11.18;;;;;;;7.35;73.21;95005.97;5045860;28;20185;-66
2020/12/27 08:38:25;;;;;;;13.82;9.50;;;;;;;7.09;73.75;94984.63;5049354;28;20552;-66
2020/12/27 08:41:17;;;;;;;13.60;8.63;;;;;;;7.40;72.91;94979.97;5048659;28;20242;-70
2020/12/27 08:44:08;;;;;;;9.27;6.80;;;;;;;7.32;73.33;94977.78;5048913;28;20462;-66
2020/12/27 08:46:40;;;;;;;11.45;7.40;;;;;;;7.45;73.00;94972.25;5049227;28;20875;-66
2020/12/27 08:49:32;;;;;;;10.82;6.68;;;;;;;7.31;73.58;94966.53;5049047;28;20208;-68
2020/12/27 08:52:06;;;;;;;9.77;6.78;;;;;;;7.35;73.97;94982.50;5038660;28;20197;-66
2020/12/27 08:54:33;;;;;;;52.72;33.42;;;;;;;7.21;74.58;94989.03;5048821;28;20275;-68
2020/12/27 08:57:04;;;;;;;21.67;15.80;;;;;;;7.41;73.92;94976.38;5049158;28;20188;-67
2020/12/27 08:59:30;;;;;;;18.83;11.80;;;;;;;7.38;74.60;94976.81;5049193;28;20561;-67
2020/12/27 09:01:56;;;;;;;14.40;9.10;;;;;;;7.58;74.50;94966.75;5049154;28;20943;-69
2020/12/27 09:04:23;;;;;;;8.55;5.80;;;;;;;7.52;74.20;94973.69;5048712;28;20216;-65
2020/12/27 09:06:56;;;;;;;8.07;5.97;;;;;;;7.74;74.12;94976.41;5049215;28;20287;-66
2020/12/27 09:09:23;;;;;;;10.07;6.63;;;;;;;7.53;74.93;94975.28;5048862;28;20209;-65
2020/12/27 09:11:50;;;;;;;10.15;6.63;;;;;;;7.71;74.39;94987.31;5048470;28;20204;-67
2020/12/27 09:14:32;;;;;;;9.38;6.38;;;;;;;7.57;75.22;94986.81;5048536;28;20189;-66
2020/12/27 09:17:05;;;;;;;9.80;6.05;;;;;;;7.33;75.07;94974.13;5049170;28;20245;-66
2020/12/27 09:19:34;;;;;;;9.02;6.20;;;;;;;7.46;75.57;94969.44;5048571;28;20659;-69
2020/12/27 09:22:04;;;;;;;9.65;5.75;;;;;;;7.58;75.29;94964.13;5049033;28;20269;-68
2020/12/27 09:24:33;;;;;;;8.23;5.15;;;;;;;7.49;75.15;94958.53;5047992;28;20658;-70
2020/12/27 09:27:10;;;;;;;5.05;3.60;;;;;;;7.46;74.61;94956.41;5049244;28;20200;-67
2020/12/27 09:29:38;;;;;;;11.45;5.97;;;;;;;7.53;74.67;94944.00;5048342;28;20257;-66
2020/12/27 09:32:12;;;;;;;16.48;12.75;;;;;;;7.61;74.85;94935.00;5048775;28;20275;-68
2020/12/27 09:34:40;;;;;;;7.43;5.45;;;;;;;7.59;74.68;94930.00;5048078;28;20315;-68
2020/12/27 09:37:17;;;;;;;5.25;3.80;;;;;;;7.68;74.25;94923.38;5051402;28;20200;-67
2020/12/27 09:39:54;;;;;;;4.00;2.90;;;;;;;7.72;73.98;94923.72;5047606;28;20559;-68
2020/12/27 09:42:25;;;;;;;3.33;2.40;;;;;;;7.76;73.75;94920.38;5028578;28;20513;-67
2020/12/27 09:44:53;;;;;;;4.57;2.80;;;;;;;7.80;73.91;94907.66;5027900;28;20447;-67
2020/12/27 09:47:25;;;;;;;5.70;2.60;;;;;;;7.78;73.96;94901.88;5027738;28;20692;-66
2020/12/27 09:50:08;;;;;;;4.28;2.80;;;;;;;7.92;73.54;94916.19;5027659;28;20701;-70
2020/12/27 09:52:47;;;;;;;4.22;2.45;;;;;;;7.82;73.01;94900.38;5027879;28;20204;-66
2020/12/27 09:55:14;;;;;;;3.47;2.05;;;;;;;7.90;73.20;94897.41;5027499;28;20205;-67
2020/12/27 09:57:43;;;;;;;4.53;2.53;;;;;;;7.93;72.69;94907.34;5028209;28;20487;-67
2020/12/27 10:00:10;;;;;;;5.05;2.10;;;;;;;7.99;72.76;94896.72;5027496;28;20273;-65
2020/12/27 10:02:36;;;;;;;5.27;2.20;;;;;;;7.78;72.76;94894.84;5028031;28;20205;-69
2020/12/27 10:05:08;;;;;;;4.55;2.45;;;;;;;7.87;72.73;94887.41;5027621;28;20447;-68
2020/12/27 10:07:34;;;;;;;4.40;2.40;;;;;;;7.98;73.04;94887.34;5028498;28;20194;-70
2020/12/27 10:10:01;;;;;;;4.82;2.30;;;;;;;8.04;72.83;94893.41;5028105;28;20443;-69
2020/12/27 10:12:28;;;;;;;3.47;1.97;;;;;;;8.10;72.23;94887.25;5027644;28;20645;-72
2020/12/27 10:14:54;;;;;;;5.38;3.08;;;;;;;8.10;72.60;94876.81;5027694;28;20521;-72
2020/12/27 10:17:21;;;;;;;8.17;4.80;;;;;;;8.07;74.46;94861.63;5028153;28;20223;-71
2020/12/27 10:19:47;;;;;;;7.38;4.90;;;;;;;8.13;73.58;94877.13;5039756;28;20443;-70
2020/12/27 10:22:15;;;;;;;8.90;5.45;;;;;;;8.16;73.62;94873.22;5046317;28;20308;-68
2020/12/27 10:24:42;;;;;;;7.78;5.70;;;;;;;8.08;74.24;94865.81;5046242;28;20189;-69
2020/12/27 10:27:08;;;;;;;16.60;14.13;;;;;;;8.11;73.55;94878.38;5046692;28;20666;-65
2020/12/27 10:29:36;;;;;;;6.33;4.27;;;;;;;8.05;73.56;94876.72;5046593;28;20944;-67
2020/12/27 10:32:05;;;;;;;4.40;3.70;;;;;;;8.07;73.32;94872.06;5046925;28;20446;-66
2020/12/27 10:34:32;;;;;;;5.60;3.55;;;;;;;8.22;73.02;94861.81;5046535;28;20466;-72
2020/12/27 10:37:00;;;;;;;4.50;3.30;;;;;;;8.11;72.92;94849.66;5047226;28;20276;-67
2020/12/27 10:39:27;;;;;;;5.28;3.78;;;;;;;8.00;73.83;94835.72;5046391;28;20526;-69
2020/12/27 10:41:55;;;;;;;5.25;3.65;;;;;;;7.87;72.89;94811.75;5046648;28;20207;-74
2020/12/27 10:44:23;;;;;;;5.57;3.80;;;;;;;7.98;73.96;94834.34;5044468;28;20200;-69
2020/12/27 10:46:50;;;;;;;6.05;4.07;;;;;;;8.09;73.66;94829.03;5048038;28;20470;-70
2020/12/27 10:49:22;;;;;;;6.30;4.67;;;;;;;8.25;74.26;94822.22;5045735;28;20207;-68
2020/12/27 10:51:49;;;;;;;4.85;3.17;;;;;;;7.97;73.12;94809.31;5046657;28;20536;-69
2020/12/27 10:54:16;;;;;;;4.50;3.10;;;;;;;8.15;73.05;94806.41;5046232;28;20200;-66
2020/12/27 10:56:43;;;;;;;3.28;1.98;;;;;;;8.00;72.53;94799.19;5047144;28;20193;-70
2020/12/27 10:59:11;;;;;;;4.10;2.00;;;;;;;8.13;72.70;94803.25;5044128;28;20184;-69
2020/12/27 11:01:47;;;;;;;2.50;1.73;;;;;;;8.26;71.06;94791.69;5049870;28;20228;-69
2020/12/27 11:04:15;;;;;;;3.75;1.85;;;;;;;8.17;71.96;94775.63;5050819;28;20438;-69
2020/12/27 11:06:41;;;;;;;2.63;1.70;;;;;;;8.27;71.61;94764.53;5052086;28;20200;-66
2020/12/27 11:09:09;;;;;;;2.60;1.70;;;;;;;8.23;70.87;94772.84;5051405;28;20479;-70
2020/12/27 11:11:36;;;;;;;1.40;1.20;;;;;;;8.35;70.83;94769.34;5056486;28;20193;-66
2020/12/27 11:14:03;;;;;;;2.13;1.20;;;;;;;8.21;70.94;94753.25;5056604;28;21128;-68
2020/12/27 11:16:31;;;;;;;1.50;0.90;;;;;;;8.35;71.56;94753.69;5051936;28;20518;-67
2020/12/27 11:18:59;;;;;;;3.10;2.42;;;;;;;8.33;72.78;94730.44;5050444;28;21106;-68
2020/12/27 11:21:26;;;;;;;2.13;1.20;;;;;;;8.46;70.84;94760.59;5050998;28;20220;-68
2020/12/27 11:23:52;;;;;;;1.58;1.10;;;;;;;8.32;70.73;94734.06;5049001;28;20426;-66
2020/12/27 11:26:19;;;;;;;1.43;1.00;;;;;;;8.18;70.68;94740.66;5050618;28;20188;-66
2020/12/27 11:28:47;;;;;;;2.00;1.20;;;;;;;8.24;71.13;94737.13;5050916;28;20435;-67
2020/12/27 11:31:17;;;;;;;2.15;1.30;;;;;;;8.22;70.60;94731.31;5051253;28;20513;-64
2020/12/27 11:33:45;;;;;;;2.40;1.30;;;;;;;8.23;70.25;94720.63;5050364;28;20240;-66
2020/12/27 11:36:12;;;;;;;1.83;1.27;;;;;;;8.09;70.68;94737.72;5049900;28;20450;-68
2020/12/27 11:38:38;;;;;;;1.10;0.80;;;;;;;8.25;69.80;94728.25;5049733;28;20435;-68
2020/12/27 11:41:04;;;;;;;1.77;1.10;;;;;;;8.28;70.07;94696.44;5049111;28;20216;-65
2020/12/27 11:43:32;;;;;;;2.28;1.23;;;;;;;8.30;69.41;94685.75;5049666;28;20437;-65
2020/12/27 11:45:59;;;;;;;1.20;0.98;;;;;;;8.36;69.59;94693.38;5049461;28;20832;-66
2020/12/27 11:48:26;;;;;;;66.32;43.45;;;;;;;8.35;70.07;94693.63;5049733;28;20236;-67
2020/12/27 11:50:53;;;;;;;268.73;217.93;;;;;;;8.68;68.89;94691.63;5049097;28;20266;-68
2020/12/27 11:53:20;;;;;;;2.33;2.03;;;;;;;8.33;68.85;94688.66;5049605;28;20431;-68
2020/12/27 11:55:46;;;;;;;2.10;1.30;;;;;;;8.25;69.63;94670.06;5048966;28;20425;-68
2020/12/27 11:58:13;;;;;;;1.20;0.93;;;;;;;8.08;70.09;94670.88;5049602;28;20439;-68
2020/12/27 12:00:39;;;;;;;1.37;1.20;;;;;;;8.09;70.11;94666.47;5049271;28;20275;-70
2020/12/27 12:03:05;;;;;;;1.83;1.30;;;;;;;8.09;70.56;94650.78;5048959;28;20925;-66
2020/12/27 12:05:32;;;;;;;2.20;1.40;;;;;;;8.12;70.49;94658.91;5048523;28;20199;-65